Time;durP1;ratioP1;P1;durP2;ratioP2;P2;SDS_P1;SDS_P2;PMS_P1;PMS_P2;Temp;Humidity;BMP_temperature;BMP_pressure;BME280_temperature;BME280_humidity;BME280_pressure;Samples;Min_cycle;Max_cycle;Signal;HPM_P1;HPM_P2
2021/06/30 00:00:26;;;;;;;4.03;2.50;;;17.00;94.80;;;;;;5054578;28;20326;-78
2021/06/30 00:02:52;;;;;;;2.47;1.90;;;17.00;95.00;;;;;;5048899;28;20564;-78
2021/06/30 00:05:18;;;;;;;2.77;2.20;;;17.00;94.90;;;;;;5050129;28;20411;-77
2021/06/30 00:07:44;;;;;;;3.10;2.60;;;17.00;95.00;;;;;;5052480;28;20430;-77
2021/06/30 00:10:11;;;;;;;4.30;2.23;;;17.00;95.20;;;;;;5053081;28;20785;-77
2021/06/30 00:12:37;;;;;;;2.97;2.07;;;17.00;94.50;;;;;;5049798;28;20266;-77
2021/06/30 00:15:20;;;;;;;6.87;2.57;;;17.00;94.40;;;;;;5048594;28;20419;-78
2021/06/30 00:17:46;;;;;;;3.67;2.20;;;17.00;94.60;;;;;;5051586;28;20951;-77
2021/06/30 00:20:13;;;;;;;2.40;2.17;;;17.00;94.20;;;;;;5052193;28;20559;-77
2021/06/30 00:22:40;;;;;;;6.17;2.30;;;17.00;93.90;;;;;;5051361;28;20913;-76
2021/06/30 00:25:07;;;;;;;2.60;2.27;;;17.00;93.30;;;;;;5050203;28;20514;-76
2021/06/30 00:27:33;;;;;;;4.17;2.37;;;17.00;92.90;;;;;;5049892;28;20537;-77
2021/06/30 00:29:58;;;;;;;4.43;2.33;;;17.00;93.10;;;;;;5051617;28;20505;-77
2021/06/30 00:32:24;;;;;;;2.50;2.00;;;17.00;93.30;;;;;;5050498;28;20184;-76
2021/06/30 00:34:50;;;;;;;3.20;2.33;;;17.00;93.20;;;;;;5048173;28;20570;-78
2021/06/30 00:37:16;;;;;;;3.10;1.90;;;17.00;93.00;;;;;;5053235;28;20208;-78
2021/06/30 00:39:41;;;;;;;4.80;2.60;;;16.90;93.10;;;;;;5047957;28;20215;-76
2021/06/30 00:42:07;;;;;;;4.20;1.80;;;16.90;93.40;;;;;;5050633;28;20395;-77
2021/06/30 00:44:34;;;;;;;4.60;2.37;;;16.90;93.60;;;;;;5043035;28;20670;-78
2021/06/30 00:47:01;;;;;;;4.40;1.70;;;16.90;92.70;;;;;;5051269;28;20899;-76
2021/06/30 00:49:27;;;;;;;3.10;1.97;;;17.00;91.80;;;;;;5050617;28;20434;-77
2021/06/30 00:51:53;;;;;;;3.60;1.70;;;17.00;92.10;;;;;;5050143;28;20805;-76
2021/06/30 00:54:18;;;;;;;2.50;1.67;;;17.10;91.20;;;;;;5061357;28;20169;-77
2021/06/30 00:56:45;;;;;;;2.13;1.50;;;17.10;90.40;;;;;;5068927;28;20445;-76
2021/06/30 00:59:12;;;;;;;3.67;2.00;;;17.10;90.10;;;;;;5069038;28;20181;-78
2021/06/30 01:01:39;;;;;;;10.93;2.00;;;17.20;89.70;;;;;;5058196;28;20508;-77
2021/06/30 01:04:04;;;;;;;2.70;1.80;;;17.20;89.20;;;;;;5051122;28;20419;-77
2021/06/30 01:06:30;;;;;;;3.97;2.10;;;17.20;88.70;;;;;;5049911;28;20453;-78
2021/06/30 01:08:56;;;;;;;3.00;1.80;;;17.20;88.70;;;;;;5049961;28;20673;-77
2021/06/30 01:11:22;;;;;;;2.50;1.87;;;17.20;89.20;;;;;;5042340;28;20191;-78
2021/06/30 01:13:48;;;;;;;4.07;1.70;;;17.20;88.90;;;;;;5056215;28;20219;-76
2021/06/30 01:16:15;;;;;;;1.87;1.57;;;17.20;89.60;;;;;;5049059;28;20185;-77
2021/06/30 01:18:41;;;;;;;1.93;1.70;;;17.10;89.70;;;;;;5050726;28;20426;-76
2021/06/30 01:21:09;;;;;;;1.70;1.60;;;17.10;89.90;;;;;;5047666;28;20851;-76
2021/06/30 01:23:36;;;;;;;1.77;1.73;;;17.00;89.90;;;;;;5049795;28;20176;-76
2021/06/30 01:26:03;;;;;;;1.97;1.50;;;16.90;89.70;;;;;;5047654;28;20425;-77
2021/06/30 01:28:29;;;;;;;2.37;1.80;;;16.80;90.00;;;;;;5065045;28;20477;-76
2021/06/30 01:30:55;;;;;;;2.07;1.60;;;16.80;90.10;;;;;;5042400;28;20458;-77
2021/06/30 01:33:22;;;;;;;1.93;1.53;;;16.80;90.40;;;;;;5044194;28;20196;-77
2021/06/30 01:35:48;;;;;;;2.10;1.60;;;16.80;90.70;;;;;;5046492;28;20534;-76
2021/06/30 01:38:14;;;;;;;2.30;1.43;;;16.80;90.90;;;;;;5046640;28;20466;-76
2021/06/30 01:40:40;;;;;;;2.63;1.60;;;16.70;91.20;;;;;;5042611;28;20241;-76
2021/06/30 01:43:06;;;;;;;5.60;1.63;;;16.70;91.70;;;;;;5049398;28;20423;-76
2021/06/30 01:45:32;;;;;;;2.10;1.57;;;16.60;92.00;;;;;;5051928;28;20177;-76
2021/06/30 01:47:58;;;;;;;2.27;1.33;;;16.40;92.40;;;;;;5049062;28;20437;-78
2021/06/30 01:50:24;;;;;;;3.30;1.40;;;16.30;92.80;;;;;;5050040;28;20187;-77
2021/06/30 01:52:50;;;;;;;2.87;1.50;;;16.20;93.60;;;;;;5049908;28;20275;-77
2021/06/30 01:55:16;;;;;;;1.70;1.40;;;16.20;93.90;;;;;;5051005;28;20244;-77
2021/06/30 01:57:47;;;;;;;2.13;1.50;;;16.10;94.30;;;;;;5052729;28;20200;-77
2021/06/30 02:00:15;;;;;;;1.40;1.40;;;16.00;94.60;;;;;;5051816;28;20992;-77
2021/06/30 02:02:41;;;;;;;1.80;1.37;;;15.90;95.50;;;;;;5053602;28;20449;-77
2021/06/30 02:05:09;;;;;;;1.63;1.30;;;15.90;95.60;;;;;;5057237;28;20454;-78
2021/06/30 02:07:35;;;;;;;2.87;1.87;;;15.70;96.40;;;;;;5063019;28;21020;-76
2021/06/30 02:10:11;;;;;;;1.60;1.37;;;15.60;97.20;;;;;;5064287;28;20415;-79
2021/06/30 02:12:38;;;;;;;2.23;1.60;;;15.40;97.30;;;;;;5052694;28;20493;-77
2021/06/30 02:15:09;;;;;;;3.77;1.20;;;15.30;97.50;;;;;;5058702;28;21020;-78
2021/06/30 02:17:36;;;;;;;3.30;1.37;;;15.10;98.30;;;;;;5064806;28;20472;-76
2021/06/30 02:20:07;;;;;;;3.07;2.17;;;15.00;98.20;;;;;;5065624;28;20466;-76
2021/06/30 02:22:33;;;;;;;4.77;1.33;;;15.00;98.40;;;;;;5063886;28;21074;-76
2021/06/30 02:24:59;;;;;;;3.23;1.43;;;15.00;98.20;;;;;;5054358;28;20418;-78
2021/06/30 02:27:26;;;;;;;2.30;1.40;;;15.00;98.00;;;;;;5054678;28;20684;-77
2021/06/30 02:29:52;;;;;;;3.03;1.40;;;14.90;97.70;;;;;;5052320;28;20420;-77
2021/06/30 02:32:18;;;;;;;2.23;1.00;;;14.90;97.50;;;;;;5053761;28;20419;-78
2021/06/30 02:34:44;;;;;;;1.77;1.10;;;14.90;96.90;;;;;;5053925;28;20987;-78
2021/06/30 02:37:10;;;;;;;1.80;1.10;;;15.00;96.70;;;;;;5053437;28;20455;-78
2021/06/30 02:39:36;;;;;;;1.83;1.00;;;14.90;96.00;;;;;;5054033;28;20282;-77
2021/06/30 02:42:02;;;;;;;1.23;0.87;;;15.00;95.90;;;;;;5052896;28;20232;-78
2021/06/30 02:44:27;;;;;;;1.00;0.80;;;14.90;95.20;;;;;;5046062;28;20211;-78
2021/06/30 02:46:53;;;;;;;3.23;1.10;;;14.90;95.30;;;;;;5052878;28;20465;-77
2021/06/30 02:49:19;;;;;;;1.37;1.10;;;14.90;95.40;;;;;;5053249;28;20176;-77
2021/06/30 02:51:45;;;;;;;4.50;0.97;;;14.80;95.30;;;;;;5053623;28;20427;-77
2021/06/30 02:54:11;;;;;;;1.33;0.80;;;14.80;94.90;;;;;;5054616;28;20184;-77
2021/06/30 02:56:36;;;;;;;1.70;1.10;;;14.90;94.60;;;;;;5063213;28;20534;-77
2021/06/30 02:59:02;;;;;;;1.00;0.90;;;14.80;94.30;;;;;;5066271;28;20219;-78
2021/06/30 03:01:28;;;;;;;1.10;0.80;;;14.80;94.20;;;;;;5083461;28;20205;-77
2021/06/30 03:03:54;;;;;;;0.80;0.70;;;14.80;94.20;;;;;;5061028;28;20983;-78
2021/06/30 03:06:19;;;;;;;2.60;0.67;;;14.90;94.30;;;;;;5057030;28;20185;-78
2021/06/30 03:08:45;;;;;;;1.37;0.80;;;14.90;93.60;;;;;;5065337;28;20658;-77
2021/06/30 03:11:11;;;;;;;1.00;0.67;;;14.90;93.70;;;;;;5063392;28;20211;-77
2021/06/30 03:13:37;;;;;;;2.37;0.90;;;14.90;93.30;;;;;;5063632;28;20188;-77
2021/06/30 03:16:02;;;;;;;1.47;0.70;;;14.90;93.40;;;;;;5058823;28;20218;-77
2021/06/30 03:18:28;;;;;;;1.00;0.70;;;14.90;93.40;;;;;;5058976;28;20207;-78
2021/06/30 03:20:54;;;;;;;0.90;0.80;;;14.90;93.00;;;;;;5055171;28;20201;-77
2021/06/30 03:23:19;;;;;;;0.90;0.70;;;14.90;93.00;;;;;;5056004;28;20176;-78
2021/06/30 03:25:45;;;;;;;1.00;0.80;;;14.90;92.40;;;;;;5055562;28;20670;-77
2021/06/30 03:28:11;;;;;;;1.30;0.93;;;14.90;92.60;;;;;;5055360;28;20276;-77
2021/06/30 03:30:36;;;;;;;1.03;0.73;;;14.80;92.90;;;;;;5051495;28;20184;-78
2021/06/30 03:33:03;;;;;;;0.97;0.70;;;14.70;93.10;;;;;;5050847;28;20631;-77
2021/06/30 03:35:28;;;;;;;1.23;0.80;;;14.70;93.70;;;;;;5053998;28;20663;-78
2021/06/30 03:37:54;;;;;;;1.20;0.97;;;14.60;94.20;;;;;;5053808;28;20435;-78
2021/06/30 03:40:20;;;;;;;1.23;0.90;;;14.60;94.20;;;;;;5045712;28;20698;-78
2021/06/30 03:42:46;;;;;;;1.13;0.87;;;14.60;94.30;;;;;;5052144;28;20434;-77
2021/06/30 03:45:12;;;;;;;1.23;0.80;;;14.60;94.10;;;;;;5054121;28;20208;-77
2021/06/30 03:47:38;;;;;;;1.10;0.77;;;14.60;93.80;;;;;;5051251;28;20465;-78
2021/06/30 03:50:05;;;;;;;1.00;0.70;;;14.60;93.70;;;;;;5053079;28;20427;-78
2021/06/30 03:52:31;;;;;;;1.27;0.80;;;14.60;93.50;;;;;;5052094;28;20576;-77
2021/06/30 03:54:57;;;;;;;2.83;0.93;;;14.70;93.30;;;;;;5052489;28;20419;-77
2021/06/30 03:57:23;;;;;;;1.00;0.70;;;14.70;93.50;;;;;;5053303;28;20482;-78
2021/06/30 03:59:48;;;;;;;1.13;0.90;;;14.80;93.30;;;;;;5051969;28;20184;-77
2021/06/30 04:02:14;;;;;;;1.50;0.87;;;14.80;93.20;;;;;;5053020;28;20422;-77
2021/06/30 04:04:40;;;;;;;1.83;1.20;;;14.80;93.30;;;;;;5054123;28;20183;-76
2021/06/30 04:07:06;;;;;;;1.00;0.80;;;14.80;93.20;;;;;;5057814;28;20205;-77
2021/06/30 04:09:31;;;;;;;1.13;0.80;;;14.80;93.30;;;;;;5052790;28;20186;-77
2021/06/30 04:11:57;;;;;;;2.00;0.83;;;14.80;93.10;;;;;;5051216;28;20565;-77
2021/06/30 04:14:23;;;;;;;3.93;0.80;;;14.80;93.30;;;;;;5051399;28;20178;-77
2021/06/30 04:16:49;;;;;;;1.00;0.87;;;14.80;93.10;;;;;;5052355;28;20929;-77
2021/06/30 04:19:16;;;;;;;1.80;1.10;;;14.90;93.40;;;;;;5050878;28;20513;-78
2021/06/30 04:21:41;;;;;;;1.93;0.80;;;14.80;93.00;;;;;;5052865;28;20228;-77
2021/06/30 04:24:07;;;;;;;1.47;1.00;;;14.80;92.90;;;;;;5050183;28;20470;-77
2021/06/30 04:26:35;;;;;;;2.07;1.10;;;14.90;92.90;;;;;;5051595;28;20222;-76
2021/06/30 04:29:01;;;;;;;1.10;0.90;;;14.90;92.90;;;;;;5049622;28;20419;-78
2021/06/30 04:31:27;;;;;;;1.27;0.93;;;14.90;92.90;;;;;;5050252;28;20517;-77
2021/06/30 04:33:52;;;;;;;1.17;0.80;;;15.00;92.70;;;;;;5049883;28;20576;-77
2021/06/30 04:36:18;;;;;;;1.50;1.10;;;15.00;92.60;;;;;;5046180;28;20424;-77
2021/06/30 04:38:44;;;;;;;1.70;0.90;;;15.10;92.50;;;;;;5051989;28;20208;-78
2021/06/30 04:41:11;;;;;;;1.20;0.83;;;15.10;92.50;;;;;;5042825;28;20242;-77
2021/06/30 04:43:37;;;;;;;1.50;1.10;;;15.10;92.50;;;;;;5046499;28;20415;-77
2021/06/30 04:46:04;;;;;;;1.40;0.90;;;15.10;92.70;;;;;;5044097;28;20446;-78
2021/06/30 04:48:29;;;;;;;2.23;1.00;;;15.00;92.50;;;;;;5050516;28;20961;-78
2021/06/30 04:50:55;;;;;;;1.87;1.10;;;15.00;92.50;;;;;;5049830;28;20416;-78
2021/06/30 04:53:21;;;;;;;0.90;0.80;;;15.00;93.00;;;;;;5052362;28;20181;-77
2021/06/30 04:55:48;;;;;;;2.63;1.00;;;15.00;92.40;;;;;;5051873;28;20288;-78
2021/06/30 04:58:14;;;;;;;1.57;1.10;;;15.00;92.80;;;;;;5051889;28;20443;-78
2021/06/30 05:00:40;;;;;;;1.67;1.00;;;15.10;93.00;;;;;;5051589;28;20467;-78
2021/06/30 05:03:05;;;;;;;1.60;0.90;;;15.10;92.50;;;;;;5051672;28;20414;-77
2021/06/30 05:05:31;;;;;;;2.63;1.10;;;15.10;92.50;;;;;;5050812;28;20428;-77
2021/06/30 05:07:57;;;;;;;1.10;0.90;;;15.10;92.50;;;;;;5045308;28;20215;-77
2021/06/30 05:10:24;;;;;;;1.00;0.90;;;15.20;92.30;;;;;;5050258;28;20434;-78
2021/06/30 05:12:50;;;;;;;1.47;1.10;;;15.20;91.90;;;;;;5047561;28;20678;-78
2021/06/30 05:15:16;;;;;;;1.07;0.90;;;15.20;91.90;;;;;;5051290;28;20515;-77
2021/06/30 05:17:42;;;;;;;1.50;0.63;;;15.20;91.90;;;;;;5051543;28;20503;-77
2021/06/30 05:20:08;;;;;;;1.50;1.00;;;15.20;91.80;;;;;;5049929;28;20548;-77
2021/06/30 05:22:34;;;;;;;1.40;0.90;;;15.20;91.70;;;;;;5050723;28;21008;-78
2021/06/30 05:24:59;;;;;;;1.70;1.00;;;15.30;91.90;;;;;;5052931;28;20423;-77
2021/06/30 05:27:25;;;;;;;1.63;1.07;;;15.30;91.50;;;;;;5051384;28;20204;-76
2021/06/30 05:29:51;;;;;;;1.40;0.97;;;15.40;91.50;;;;;;5053549;28;20187;-76
2021/06/30 05:32:17;;;;;;;1.60;1.00;;;15.50;91.10;;;;;;5050508;28;20666;-77
2021/06/30 05:34:42;;;;;;;3.47;1.23;;;15.50;90.90;;;;;;5051422;28;20679;-75
2021/06/30 05:37:08;;;;;;;4.00;1.37;;;15.50;91.20;;;;;;5050107;28;20284;-76
2021/06/30 05:39:34;;;;;;;1.37;1.10;;;15.60;90.80;;;;;;5049071;28;20220;-77
2021/06/30 05:41:59;;;;;;;1.77;1.27;;;15.60;90.90;;;;;;5052131;28;20583;-78
2021/06/30 05:44:25;;;;;;;2.17;1.00;;;15.80;90.70;;;;;;5049467;28;20182;-77
2021/06/30 05:46:51;;;;;;;2.47;1.10;;;15.90;90.50;;;;;;5052917;28;20208;-77
2021/06/30 05:49:17;;;;;;;1.00;0.87;;;15.80;90.10;;;;;;5054005;28;20421;-77
2021/06/30 05:51:43;;;;;;;1.83;0.93;;;15.70;90.70;;;;;;5068849;28;20191;-77
2021/06/30 05:54:10;;;;;;;2.67;1.07;;;15.70;90.60;;;;;;5049859;28;20184;-76
2021/06/30 05:56:37;;;;;;;4.30;1.43;;;15.80;90.40;;;;;;5054102;28;20208;-76
2021/06/30 05:59:03;;;;;;;1.97;1.10;;;15.70;90.40;;;;;;5066441;28;20428;-76
2021/06/30 06:01:30;;;;;;;1.37;1.00;;;15.80;90.40;;;;;;5068497;28;20566;-76
2021/06/30 06:03:56;;;;;;;1.47;1.13;;;15.80;90.40;;;;;;5064612;28;20186;-76
2021/06/30 06:06:22;;;;;;;1.73;1.10;;;15.90;90.20;;;;;;5050802;28;20999;-77
2021/06/30 06:08:47;;;;;;;1.57;1.10;;;15.90;89.90;;;;;;5055029;28;20200;-77
2021/06/30 06:11:13;;;;;;;2.43;1.30;;;16.00;89.70;;;;;;5049322;28;20189;-77
2021/06/30 06:13:45;;;;;;;5.23;1.50;;;16.00;89.30;;;;;;5055704;28;20206;-77
2021/06/30 06:16:16;;;;;;;1.93;1.07;;;16.10;89.30;;;;;;5055367;28;20192;-78
2021/06/30 06:18:42;;;;;;;1.63;1.33;;;16.20;88.70;;;;;;5054380;28;20791;-78
2021/06/30 06:21:08;;;;;;;1.67;1.00;;;16.30;88.40;;;;;;5053929;28;20466;-76
2021/06/30 06:23:34;;;;;;;0.90;0.80;;;16.40;87.70;;;;;;5057359;28;20403;-76
2021/06/30 06:26:00;;;;;;;1.20;0.90;;;16.40;87.70;;;;;;5075305;28;20177;-76
2021/06/30 06:28:30;;;;;;;1.30;1.10;;;16.40;87.00;;;;;;5076314;28;20429;-77
2021/06/30 06:30:56;;;;;;;1.80;0.90;;;16.30;87.60;;;;;;5060364;28;20271;-76
2021/06/30 06:33:22;;;;;;;2.43;1.10;;;16.30;87.30;;;;;;5055902;28;20525;-77
2021/06/30 06:35:48;;;;;;;1.73;1.17;;;16.40;87.80;;;;;;5056472;28;20543;-77
2021/06/30 06:38:14;;;;;;;2.90;1.10;;;16.50;87.00;;;;;;5057691;28;20255;-78
2021/06/30 06:40:41;;;;;;;2.90;1.00;;;16.50;86.50;;;;;;5055969;28;20203;-78
2021/06/30 06:43:08;;;;;;;1.83;1.10;;;16.60;86.80;;;;;;5055283;28;20418;-76
2021/06/30 06:45:35;;;;;;;4.20;1.00;;;16.70;85.90;;;;;;5051769;28;20454;-76
2021/06/30 06:48:01;;;;;;;1.60;1.20;;;16.70;84.60;;;;;;5056572;28;20455;-77
2021/06/30 06:50:27;;;;;;;1.03;1.00;;;16.70;84.40;;;;;;5056769;28;20968;-77
2021/06/30 06:52:53;;;;;;;2.13;1.20;;;16.70;83.80;;;;;;5055488;28;20470;-77
2021/06/30 06:55:19;;;;;;;2.10;1.00;;;16.60;83.40;;;;;;5055179;28;20923;-77
2021/06/30 06:57:45;;;;;;;1.47;1.03;;;16.70;84.70;;;;;;5052744;28;20200;-76
2021/06/30 07:00:12;;;;;;;1.70;1.00;;;16.90;84.40;;;;;;5054594;28;20731;-76
2021/06/30 07:02:37;;;;;;;1.50;1.13;;;17.10;83.70;;;;;;5047219;28;20418;-77
2021/06/30 07:05:05;;;;;;;2.20;1.07;;;17.30;83.30;;;;;;5054650;28;20844;-77
2021/06/30 07:07:30;;;;;;;2.00;1.20;;;17.50;81.80;;;;;;5055984;28;20193;-76
2021/06/30 07:09:56;;;;;;;1.63;1.10;;;17.60;81.50;;;;;;5050025;28;20423;-77
2021/06/30 07:12:22;;;;;;;2.50;1.13;;;17.50;81.10;;;;;;5045555;28;20267;-77
2021/06/30 07:14:48;;;;;;;2.00;1.20;;;17.40;80.60;;;;;;5052857;28;20263;-76
2021/06/30 07:17:14;;;;;;;2.07;0.97;;;17.20;81.50;;;;;;5049845;28;20712;-76
2021/06/30 07:19:40;;;;;;;5.67;1.43;;;17.20;82.40;;;;;;5051582;28;20551;-77
2021/06/30 07:22:06;;;;;;;1.17;0.80;;;17.40;82.20;;;;;;5050653;28;20728;-76
2021/06/30 07:24:31;;;;;;;1.43;1.03;;;17.60;79.90;;;;;;5043056;28;20185;-77
2021/06/30 07:26:57;;;;;;;1.37;1.20;;;17.40;80.00;;;;;;5047205;28;20254;-77
2021/06/30 07:29:24;;;;;;;3.37;1.17;;;17.30;79.00;;;;;;5052065;28;20186;-75
2021/06/30 07:31:49;;;;;;;2.30;1.20;;;17.40;79.90;;;;;;5050915;28;20206;-76
2021/06/30 07:34:15;;;;;;;1.70;0.90;;;17.50;78.90;;;;;;5051306;28;20442;-76
2021/06/30 07:36:41;;;;;;;2.73;0.90;;;17.70;77.10;;;;;;5049448;28;20286;-77
2021/06/30 07:39:08;;;;;;;0.73;0.60;;;17.70;76.70;;;;;;5052380;28;20291;-76
2021/06/30 07:41:34;;;;;;;1.23;1.10;;;17.60;75.80;;;;;;5049989;28;20616;-77
2021/06/30 07:44:00;;;;;;;2.87;0.90;;;17.60;77.00;;;;;;5052853;28;20419;-76
2021/06/30 07:46:27;;;;;;;1.63;1.00;;;17.70;75.50;;;;;;5069551;28;20840;-76
2021/06/30 07:48:54;;;;;;;1.30;0.80;;;17.80;74.80;;;;;;5053579;28;20426;-77
2021/06/30 07:51:20;;;;;;;1.20;0.97;;;17.90;75.70;;;;;;5050216;28;20529;-76
2021/06/30 07:53:45;;;;;;;1.13;0.87;;;18.00;73.30;;;;;;5051552;28;20523;-78
2021/06/30 07:56:12;;;;;;;1.23;0.80;;;18.20;73.50;;;;;;5053550;28;20625;-76
2021/06/30 07:58:40;;;;;;;0.90;0.73;;;18.30;72.10;;;;;;5052630;28;20216;-77
2021/06/30 08:01:06;;;;;;;1.30;0.80;;;18.30;72.40;;;;;;5050497;28;20566;-77
2021/06/30 08:03:32;;;;;;;1.30;0.80;;;18.20;74.20;;;;;;5051289;28;20415;-76
2021/06/30 08:05:58;;;;;;;4.20;1.10;;;18.20;73.70;;;;;;5052092;28;20769;-77
2021/06/30 08:08:23;;;;;;;0.93;0.80;;;18.20;75.20;;;;;;5051725;28;20275;-77
2021/06/30 08:10:49;;;;;;;2.00;0.90;;;18.30;73.00;;;;;;5051280;28;20198;-78
2021/06/30 08:13:15;;;;;;;3.63;0.80;;;18.50;71.80;;;;;;5049795;28;20192;-76
2021/06/30 08:15:41;;;;;;;2.03;0.90;;;18.40;72.60;;;;;;5052088;28;20185;-76
2021/06/30 08:18:07;;;;;;;0.90;0.70;;;18.40;75.10;;;;;;5052037;28;20299;-76
2021/06/30 08:20:33;;;;;;;1.47;0.83;;;18.30;74.50;;;;;;5049737;28;20698;-76
2021/06/30 08:22:59;;;;;;;1.93;0.80;;;18.10;75.80;;;;;;5050202;28;20448;-78
2021/06/30 08:25:25;;;;;;;0.90;0.70;;;18.00;76.50;;;;;;5051553;28;20556;-76
2021/06/30 08:27:52;;;;;;;1.73;1.00;;;17.80;77.10;;;;;;5051393;28;20204;-76
2021/06/30 08:30:18;;;;;;;4.50;1.67;;;17.60;77.80;;;;;;5045344;28;20423;-77
2021/06/30 08:32:45;;;;;;;1.00;0.73;;;17.70;78.10;;;;;;5041114;28;20506;-76
2021/06/30 08:35:13;;;;;;;2.03;0.83;;;17.60;77.10;;;;;;5051285;28;20439;-77
2021/06/30 08:37:41;;;;;;;3.10;0.90;;;17.40;77.70;;;;;;5051421;28;20450;-77
2021/06/30 08:40:09;;;;;;;1.67;1.03;;;17.50;78.90;;;;;;5051690;28;20446;-78
2021/06/30 08:42:35;;;;;;;0.80;0.70;;;17.70;78.40;;;;;;5052244;28;20790;-81
2021/06/30 08:45:01;;;;;;;3.90;1.20;;;17.80;77.10;;;;;;5045513;28;20422;-77
2021/06/30 08:47:33;;;;;;;1.70;1.00;;;18.00;77.70;;;;;;5052887;28;20679;-78
2021/06/30 08:50:00;;;;;;;2.20;0.70;;;18.30;77.10;;;;;;5044835;28;20415;-78
2021/06/30 08:52:26;;;;;;;1.33;0.97;;;18.30;75.20;;;;;;5048232;28;20425;-79
2021/06/30 08:54:52;;;;;;;1.00;0.73;;;18.30;76.10;;;;;;5052633;28;20804;-79
2021/06/30 08:57:19;;;;;;;1.40;1.10;;;18.40;75.50;;;;;;5052002;28;20448;-79
2021/06/30 08:59:47;;;;;;;1.90;0.83;;;18.40;75.10;;;;;;5052175;28;20423;-78
2021/06/30 09:02:13;;;;;;;1.20;0.70;;;18.60;74.30;;;;;;5050029;28;20506;-78
2021/06/30 09:04:41;;;;;;;1.87;0.80;;;18.70;74.20;;;;;;5054913;28;20452;-79
2021/06/30 09:07:07;;;;;;;1.80;1.20;;;18.70;75.50;;;;;;5058347;28;20278;-79
2021/06/30 09:09:40;;;;;;;1.47;1.00;;;18.40;76.70;;;;;;5056440;28;20941;-78
2021/06/30 09:12:07;;;;;;;1.13;0.87;;;18.20;76.50;;;;;;5045840;28;20212;-80
2021/06/30 09:14:40;;;;;;;1.03;0.80;;;18.00;75.10;;;;;;5050759;28;20722;-77
2021/06/30 09:17:22;;;;;;;1.97;1.10;;;17.80;76.40;;;;;;5052487;28;20435;-78
2021/06/30 09:19:49;;;;;;;1.87;0.90;;;17.90;76.20;;;;;;5067250;28;20449;-78
2021/06/30 09:22:16;;;;;;;1.00;0.80;;;18.10;73.90;;;;;;5051816;28;20904;-80
2021/06/30 09:24:43;;;;;;;1.60;0.70;;;18.10;73.00;;;;;;5051897;28;20483;-77
2021/06/30 09:27:10;;;;;;;0.90;0.73;;;17.90;73.70;;;;;;5055438;28;20474;-78
2021/06/30 09:29:38;;;;;;;0.80;0.70;;;18.00;73.90;;;;;;5056838;28;20419;-80
2021/06/30 09:32:09;;;;;;;1.77;1.07;;;18.20;73.00;;;;;;5052828;28;20798;-79
2021/06/30 09:34:35;;;;;;;1.23;1.00;;;18.30;74.00;;;;;;5057913;28;20455;-81
2021/06/30 09:37:04;;;;;;;1.80;0.90;;;18.30;72.30;;;;;;5059574;28;20485;-77
2021/06/30 09:39:35;;;;;;;3.13;1.00;;;18.40;73.70;;;;;;5059301;28;20667;-78
2021/06/30 09:42:08;;;;;;;2.07;1.00;;;18.80;71.80;;;;;;5057841;28;20489;-77
2021/06/30 09:44:35;;;;;;;1.27;1.03;;;19.30;70.40;;;;;;5048316;28;20418;-78
2021/06/30 09:47:02;;;;;;;1.47;0.80;;;19.40;67.70;;;;;;5053836;28;20909;-78
2021/06/30 09:49:28;;;;;;;2.43;0.60;;;19.30;67.90;;;;;;5051485;28;20419;-78
2021/06/30 09:52:10;;;;;;;1.80;0.90;;;19.20;68.50;;;;;;5050683;28;20434;-79
2021/06/30 09:54:37;;;;;;;1.20;0.90;;;19.20;69.10;;;;;;5053298;28;20424;-79
2021/06/30 09:57:09;;;;;;;2.40;0.70;;;18.50;75.70;;;;;;5047714;28;20477;-79
2021/06/30 09:59:40;;;;;;;2.27;1.07;;;17.60;80.50;;;;;;5051701;28;20431;-80
2021/06/30 10:02:16;;;;;;;2.10;1.13;;;16.40;86.80;;;;;;5076176;28;20463;-80
2021/06/30 10:04:57;;;;;;;1.33;0.90;;;16.00;90.20;;;;;;5072269;28;20425;-79
2021/06/30 10:07:24;;;;;;;1.00;0.80;;;16.10;87.70;;;;;;5073220;28;20523;-78
2021/06/30 10:09:53;;;;;;;1.43;0.90;;;16.30;87.10;;;;;;5080619;28;20508;-79
2021/06/30 10:12:23;;;;;;;2.00;0.83;;;16.70;85.50;;;;;;5069951;28;20417;-78
2021/06/30 10:14:50;;;;;;;1.00;0.80;;;17.00;85.00;;;;;;5065793;28;20437;-79
2021/06/30 10:17:16;;;;;;;0.83;0.70;;;17.40;81.20;;;;;;5054562;28;20567;-80
2021/06/30 10:19:44;;;;;;;1.83;0.80;;;17.50;81.40;;;;;;5052385;28;20428;-81
2021/06/30 10:22:11;;;;;;;1.17;0.80;;;17.80;81.90;;;;;;5052057;28;20205;-80
2021/06/30 10:24:37;;;;;;;1.17;0.97;;;18.00;80.80;;;;;;5048543;28;20424;-79
2021/06/30 10:27:06;;;;;;;1.73;0.77;;;18.50;79.00;;;;;;5052920;28;20963;-83
2021/06/30 10:29:34;;;;;;;1.33;0.87;;;18.60;75.70;;;;;;5048089;28;20902;-78
2021/06/30 10:32:03;;;;;;;1.20;0.90;;;18.90;74.60;;;;;;5042320;28;20431;-80
2021/06/30 10:34:43;;;;;;;1.73;1.00;;;19.20;70.80;;;;;;5046411;28;20499;-80
2021/06/30 10:37:25;;;;;;;1.73;1.00;;;19.20;68.20;;;;;;5045791;28;20455;-79
2021/06/30 10:39:52;;;;;;;4.20;1.20;;;19.20;70.70;;;;;;5050328;28;20450;-77
2021/06/30 10:42:33;;;;;;;1.37;1.10;;;19.40;69.70;;;;;;5050622;28;20478;-79
2021/06/30 10:45:04;;;;;;;1.40;1.10;;;19.40;69.50;;;;;;5056782;28;20436;-79
2021/06/30 10:47:37;;;;;;;1.70;1.33;;;19.40;67.90;;;;;;5055187;28;20510;-77
2021/06/30 10:50:22;;;;;;;2.50;1.00;;;19.40;66.90;;;;;;5055169;28;21106;-79
2021/06/30 10:52:49;;;;;;;2.00;0.90;;;19.60;66.00;;;;;;5053840;28;20460;-79
2021/06/30 10:55:34;;;;;;;1.20;0.80;;;20.00;65.30;;;;;;5055150;28;20446;-78
2021/06/30 10:58:14;;;;;;;2.27;1.00;;;19.90;65.80;;;;;;5055889;28;20437;-80
2021/06/30 11:00:52;;;;;;;0.90;0.80;;;19.80;67.20;;;;;;5050444;28;20463;-78
2021/06/30 11:03:42;;;;;;;1.10;0.90;;;19.90;66.60;;;;;;5049160;28;20410;-78
2021/06/30 11:06:13;;;;;;;1.20;1.10;;;19.30;67.70;;;;;;5063318;28;20415;-78
2021/06/30 11:08:49;;;;;;;1.70;1.27;;;19.30;69.50;;;;;;5055481;28;20421;-77
2021/06/30 11:11:19;;;;;;;1.33;1.10;;;19.20;69.80;;;;;;5058085;28;20859;-78
2021/06/30 11:14:04;;;;;;;1.33;1.07;;;19.00;71.70;;;;;;5066531;28;20457;-78
2021/06/30 11:16:48;;;;;;;3.00;1.30;;;19.00;71.70;;;;;;5056154;28;20486;-79
2021/06/30 11:19:20;;;;;;;1.70;1.00;;;19.10;72.70;;;;;;5064978;28;20488;-78
2021/06/30 11:22:11;;;;;;;1.67;1.03;;;19.20;72.30;;;;;;5076345;28;20489;-78
2021/06/30 11:27:06;;;;;;;2.07;1.10;;;19.30;72.10;;;;;;5056636;28;20443;-78
2021/06/30 11:29:55;;;;;;;1.70;1.10;;;19.50;70.50;;;;;;5052720;28;20476;-78
2021/06/30 11:32:35;;;;;;;2.70;1.60;;;19.60;70.80;;;;;;5043803;28;20563;-78
2021/06/30 11:35:05;;;;;;;2.00;1.10;;;20.10;68.00;;;;;;5066591;28;20930;-78
2021/06/30 11:37:31;;;;;;;1.57;1.00;;;20.20;66.30;;;;;;5058353;28;20427;-79
2021/06/30 11:40:04;;;;;;;2.07;1.03;;;20.10;63.50;;;;;;5065729;28;20426;-78
2021/06/30 11:42:36;;;;;;;1.00;0.90;;;19.90;62.90;;;;;;5053566;28;20426;-78
2021/06/30 11:45:02;;;;;;;2.20;1.20;;;19.70;64.10;;;;;;5055716;28;20480;-78
2021/06/30 11:47:28;;;;;;;1.07;1.00;;;19.80;66.30;;;;;;5053971;28;20828;-79
2021/06/30 11:50:01;;;;;;;1.77;1.00;;;19.80;66.10;;;;;;5055232;28;20419;-78
2021/06/30 11:52:29;;;;;;;1.33;1.00;;;19.90;67.60;;;;;;5048676;28;20542;-77
2021/06/30 11:54:56;;;;;;;2.53;1.33;;;19.60;68.80;;;;;;5054223;28;20844;-79
2021/06/30 11:57:22;;;;;;;1.10;0.80;;;19.40;69.90;;;;;;5056731;28;20471;-78
2021/06/30 11:59:48;;;;;;;1.57;1.00;;;19.10;72.40;;;;;;5056419;28;20755;-80
2021/06/30 12:02:13;;;;;;;1.60;1.33;;;18.00;80.80;;;;;;5050344;28;20576;-80
2021/06/30 12:04:40;;;;;;;2.30;1.50;;;17.00;87.70;;;;;;5057007;28;20210;-80
2021/06/30 12:07:06;;;;;;;2.10;1.50;;;16.40;90.90;;;;;;5056997;28;20220;-81
2021/06/30 12:09:33;;;;;;;2.10;1.50;;;16.20;92.80;;;;;;5055062;28;20889;-79
2021/06/30 12:12:07;;;;;;;2.50;1.30;;;16.50;94.00;;;;;;5046991;28;20437;-80
2021/06/30 12:14:46;;;;;;;1.53;1.17;;;17.00;94.30;;;;;;5054653;28;20851;-79
2021/06/30 12:17:16;;;;;;;1.47;1.20;;;17.50;92.90;;;;;;5050307;28;20542;-80
2021/06/30 12:19:47;;;;;;;2.83;1.50;;;17.80;86.30;;;;;;5054444;28;20447;-80
2021/06/30 12:22:20;;;;;;;2.67;1.50;;;18.00;89.00;;;;;;5053833;28;20466;-78
2021/06/30 12:24:51;;;;;;;1.77;1.20;;;18.10;88.10;;;;;;5055827;28;20419;-77
2021/06/30 12:27:17;;;;;;;2.43;1.50;;;18.40;87.30;;;;;;5054238;28;21393;-81
2021/06/30 12:29:43;;;;;;;5.13;1.40;;;18.70;88.10;;;;;;5056021;28;20424;-78
2021/06/30 12:32:14;;;;;;;2.13;1.33;;;19.10;85.50;;;;;;5054489;28;20457;-78
2021/06/30 12:34:43;;;;;;;2.00;1.80;;;19.20;83.10;;;;;;5055938;28;20478;-80
2021/06/30 12:37:19;;;;;;;1.33;1.20;;;19.20;83.00;;;;;;5076075;28;20466;-80
2021/06/30 12:39:54;;;;;;;1.47;1.23;;;19.10;84.90;;;;;;5052747;28;20443;-77
2021/06/30 12:42:21;;;;;;;1.50;1.10;;;18.90;83.10;;;;;;5055794;28;20473;-79
2021/06/30 12:44:54;;;;;;;4.63;1.40;;;18.60;82.10;;;;;;5055378;28;20449;-78
2021/06/30 12:47:20;;;;;;;3.00;1.40;;;18.40;84.40;;;;;;5059846;28;20434;-78
2021/06/30 12:49:56;;;;;;;2.20;1.57;;;18.60;85.00;;;;;;5060237;28;20421;-79
2021/06/30 12:52:22;;;;;;;3.87;1.10;;;18.90;83.40;;;;;;5050165;28;21002;-77